M I D A S
Marine Information and Data Acquisition System
Tripno 185 of the Zeeleeuw from 2001-12-14 07:15:00 to 2001-12-14 18:30:00
Back to CruiseResearch ActivitiesStationsMapUnderway DataData graphs

EquipmentUnitsComment
TimeDGPSUTC
LatitudeDGPSDM.mWGS84
LongitudeDGPSDM.mWGS84
HeadingGyrodeg 
SOGDGPSknotsSpeed over ground
COGDGPSdegCourse over ground
DepthEcho soundermeters200 kHz
Missing or incorrect values are displayed as -999
Navigation data collected by the RV Zeeleeuw from 2001-12-14 07:15:00 to 2001-12-14 18:30:00
                                                                                    Next 1000 lines
Time Latitude Longitude Heading SOG COG Depth
2001-12-14 07:20:31 51°13.687 2°55.905     347.8 6.2
2001-12-14 07:20:36 51°13.687 2°55.905     334.7 6.2
2001-12-14 07:20:41 51°13.687 2°55.905     354.4 6.2
2001-12-14 07:20:46 51°13.687 2°55.905     7.2 6.1
2001-12-14 07:20:51 51°13.687 2°55.905     1.5 6.2
2001-12-14 07:20:56 51°13.687 2°55.905     347.2 6.1
2001-12-14 07:21:01 51°13.687 2°55.905     338.4 6.2
2001-12-14 07:21:06 51°13.687 2°55.905     339.9 6.2
2001-12-14 07:21:11 51°13.687 2°55.905     348.5 6.2
2001-12-14 07:21:16 51°13.687 2°55.905     343.4 6.2
2001-12-14 07:21:21 51°13.687 2°55.905 359.8   345.1 6.2
2001-12-14 07:21:26 51°13.687 2°55.905 359.8   351.7 6.2
2001-12-14 07:21:31 51°13.688 2°55.905 359.8   340.3 6.2
2001-12-14 07:21:36 51°13.688 2°55.905 359.8   319.5 6.2
2001-12-14 07:21:41 51°13.688 2°55.905     347.5 6.2
2001-12-14 07:21:46 51°13.688 2°55.905 359.8   356.7 6.2
2001-12-14 07:21:51 51°13.688 2°55.905 359.8   351.4 6.2
2001-12-14 07:21:57 51°13.688 2°55.905 359.8   346.5 6.2
2001-12-14 07:22:01 51°13.688 2°55.905 359.8   345.2 6.1
2001-12-14 07:22:06 51°13.688 2°55.905 359.8   341.2 5.8
2001-12-14 07:22:11 51°13.688 2°55.905 359.8   321.5 6.2
2001-12-14 07:22:16 51°13.688 2°55.906 359.8   324 6.2
2001-12-14 07:22:21 51°13.688 2°55.906 359.8   358.3 6.2
2001-12-14 07:22:26 51°13.688 2°55.906 359.7   351.4 6.2
2001-12-14 07:22:31 51°13.688 2°55.906 359.8   337.9 6.2
2001-12-14 07:22:36 51°13.688 2°55.906 359.8   349.6 6.2
2001-12-14 07:22:41 51°13.688 2°55.905 359.7   347 6.2
2001-12-14 07:22:46 51°13.688 2°55.905 359.7   334.9 6.2
2001-12-14 07:22:50 51°13.688 2°55.905 359.8   343.4 6.2
2001-12-14 07:22:56 51°13.688 2°55.905 359.8   346 6.2
2001-12-14 07:23:00 51°13.688 2°55.905 359.8   275.6 6.2
2001-12-14 07:23:06 51°13.689 2°55.905 359.8   266.2 6.2
2001-12-14 07:23:11 51°13.688 2°55.905 359.8   229.8 6.2
2001-12-14 07:23:17 51°13.688 2°55.905 359.8   206.2 6.2
2001-12-14 07:23:21 51°13.688 2°55.905     167 6.2
2001-12-14 07:23:26 51°13.688 2°55.905     52.8 6.2
2001-12-14 07:23:31 51°13.688 2°55.905 359.8   239.9 6.2
2001-12-14 07:23:36 51°13.688 2°55.905 359.8   239.4 6.2
2001-12-14 07:23:41 51°13.688 2°55.905 359.8   197.2 6.2
2001-12-14 07:23:46 51°13.688 2°55.905     170.3 6.2
2001-12-14 07:23:51 51°13.688 2°55.905     197.8 6.2
2001-12-14 07:23:56 51°13.688 2°55.905     200.1 6.2
2001-12-14 07:24:01 51°13.688 2°55.905     200.6 6.2
2001-12-14 07:24:06 51°13.688 2°55.905     211.6 6.2
2001-12-14 07:24:11 51°13.688 2°55.905     231.1 6.2
2001-12-14 07:24:16 51°13.688 2°55.905     281.8 6.2
2001-12-14 07:24:21 51°13.688 2°55.905     301.6 6.2
2001-12-14 07:24:26 51°13.688 2°55.905     259.6 6.2
2001-12-14 07:24:31 51°13.688 2°55.905     236.7 6.2
2001-12-14 07:24:36 51°13.688 2°55.904     254.2 6.2
2001-12-14 07:24:41 51°13.688 2°55.904 0.2   239.4 6.2
2001-12-14 07:24:46 51°13.688 2°55.904 0.2   307.6 6.2
2001-12-14 07:24:51 51°13.688 2°55.904     19.7 6.2
2001-12-14 07:24:56 51°13.688 2°55.904     3.1 6.2
2001-12-14 07:25:01 51°13.688 2°55.905     351.6 6.2
2001-12-14 07:25:06 51°13.688 2°55.905     354.2 6.2
2001-12-14 07:25:11 51°13.688 2°55.905     337.5 6.2
2001-12-14 07:25:16 51°13.688 2°55.905     18.9 6.2
2001-12-14 07:25:21 51°13.688 2°55.905     3.7 6.2
2001-12-14 07:25:26 51°13.688 2°55.905     323.9 6.2
2001-12-14 07:25:31 51°13.688 2°55.905     320.5 6.2
2001-12-14 07:25:36 51°13.688 2°55.905     343.2 6.2
2001-12-14 07:25:41 51°13.688 2°55.905     338.5 6.2
2001-12-14 07:25:46 51°13.688 2°55.905     319.8 6.2
2001-12-14 07:25:51 51°13.688 2°55.905     271.4 6.2
2001-12-14 07:25:56 51°13.688 2°55.905 0.2   254.1 6.2
2001-12-14 07:26:01 51°13.689 2°55.905 0.2   351.8 6.2
2001-12-14 07:26:06 51°13.689 2°55.905     332.7 6.2
2001-12-14 07:26:11 51°13.689 2°55.905     0.4 6.2
2001-12-14 07:26:16 51°13.689 2°55.905     328.9 6.2
2001-12-14 07:26:38 51°13.689 2°55.905     348.1 6.2
2001-12-14 07:26:43 51°13.689 2°55.905 359.7   353.5 6.2
2001-12-14 07:26:48 51°13.689 2°55.905 359.8   12.6 6.2
2001-12-14 07:26:52 51°13.689 2°55.905 359.8   10.3 6.7
2001-12-14 07:26:56 51°13.689 2°55.905 359.8   1.7 6.8
2001-12-14 07:26:59 51°13.689 2°55.905 359.8   334.3 6.9
2001-12-14 07:27:03 51°13.689 2°55.905 359.8   353.8 7
2001-12-14 07:27:08 51°13.688 2°55.905 359.8   352.5 7
2001-12-14 07:27:33 51°13.688 2°55.905 359.7   345.2 6.5
2001-12-14 07:27:38 51°13.688 2°55.905 359.7   353 6.4
2001-12-14 07:27:43 51°13.688 2°55.905 359.7   0.3 6.4
2001-12-14 07:27:48 51°13.688 2°55.905 0.3   312.2 6.3
2001-12-14 07:27:53 51°13.688 2°55.905 23.5   305.7 6.3
2001-12-14 07:27:58 51°13.689 2°55.905 63.5   295.7 6.3
2001-12-14 07:28:03 51°13.689 2°55.905 97.3   328.9 6
2001-12-14 07:28:08 51°13.689 2°55.905 128.8   326.6 6.3
2001-12-14 07:28:13 51°13.689 2°55.905 143.7   292.9 6.2
2001-12-14 07:28:18 51°13.689 2°55.904 142.8   276.8 6.2
2001-12-14 07:28:23 51°13.689 2°55.904 136.7   309.5 6.2
2001-12-14 07:28:28 51°13.689 2°55.904 129.7   316.9 6.2
2001-12-14 07:28:34 51°13.689 2°55.905 129.8   279.3 6.2
2001-12-14 07:28:38 51°13.689 2°55.905 130.2   297 6.2
2001-12-14 07:28:43 51°13.689 2°55.905 130   346.4 6.2
2001-12-14 07:28:49 51°13.689 2°55.905 130   351.4 6.2
2001-12-14 07:28:53 51°13.689 2°55.905 130   331.1 6.2
2001-12-14 07:28:58 51°13.689 2°55.905 130.2   332.3 6.2
2001-12-14 07:29:03 51°13.689 2°55.905 130.2   334.2 6.1
2001-12-14 07:29:08 51°13.689 2°55.905 130   352.9 6.2
2001-12-14 07:29:13 51°13.689 2°55.905 130   301.9 6.3
2001-12-14 07:29:18 51°13.689 2°55.905 130   252.3 6.2
2001-12-14 07:29:23 51°13.689 2°55.905 130.2   270.3 6.2
2001-12-14 07:29:28 51°13.689 2°55.905 130.2   250.3 6.2
2001-12-14 07:29:33 51°13.689 2°55.905 130.2   231.5 6.3
2001-12-14 07:29:38 51°13.689 2°55.905 130.2   224.4 6.3
2001-12-14 07:29:43 51°13.689 2°55.905 130.3   224.4 6.3
2001-12-14 07:29:48 51°13.689 2°55.905 130.3   213.1 6.3
2001-12-14 07:29:53 51°13.689 2°55.905 130.5   227.3 6.2
2001-12-14 07:29:58 51°13.689 2°55.905 130.5   251.2 6.2
2001-12-14 07:30:03 51°13.689 2°55.905 130.3   335.6 6.2
2001-12-14 07:30:08 51°13.689 2°55.905 130.3   350.7 6.2
2001-12-14 07:30:13 51°13.689 2°55.905 130.3   320.4 6.2
2001-12-14 07:30:18 51°13.689 2°55.905 130.5   237.2 6.2
2001-12-14 07:30:23 51°13.689 2°55.905 130.5   253.1 6.2
2001-12-14 07:30:28 51°13.689 2°55.905 130.5   248.5 5.8
2001-12-14 07:30:33 51°13.689 2°55.905 130.5   264.1 6.2
2001-12-14 07:30:38 51°13.689 2°55.905 130.5   269.9 6.3
2001-12-14 07:30:42 51°13.689 2°55.905 130.5   244.7 6.3
2001-12-14 07:30:48 51°13.689 2°55.905 130.5   286 6.2
2001-12-14 07:30:54 51°13.689 2°55.905 130.5   346.9 6.2
2001-12-14 07:30:58 51°13.689 2°55.905 130.5   7.7 6.2
2001-12-14 07:31:03 51°13.689 2°55.904 130.5   356.7 6.2
2001-12-14 07:31:08 51°13.689 2°55.904 130.5   348.8 6.2
2001-12-14 07:31:13 51°13.689 2°55.904 130.5   338.8 6.3
2001-12-14 07:31:18 51°13.689 2°55.904 130.5   25.1 6.3
2001-12-14 07:31:23 51°13.689 2°55.904 130.5   139.9 6.3
2001-12-14 07:31:28 51°13.689 2°55.904 130.5   218 6.3
2001-12-14 07:31:33 51°13.689 2°55.904 130.5   224.4 6.3
2001-12-14 07:31:38 51°13.689 2°55.904 130.5   314.5 6.3
2001-12-14 07:31:43 51°13.689 2°55.904 130.5   318.3 6.3
2001-12-14 07:31:48 51°13.689 2°55.904 130.5   305.2 6.3
2001-12-14 07:31:53 51°13.689 2°55.904 130.5   294.5 6.3
2001-12-14 07:31:58 51°13.689 2°55.904 130.5   280.7 6.3
2001-12-14 07:32:03 51°13.689 2°55.904 130.5   349 6.3
2001-12-14 07:32:08 51°13.689 2°55.904 130.3   346.5 6.3
2001-12-14 07:32:13 51°13.689 2°55.904 130.3   306.8 6.3
2001-12-14 07:32:18 51°13.689 2°55.904 130.3   343 6.3
2001-12-14 07:32:23 51°13.689 2°55.904 130.3   8.2 6.3
2001-12-14 07:32:27 51°13.689 2°55.904 130.3   7.5 6.3
2001-12-14 07:32:33 51°13.689 2°55.904 130.3   6 6.3
2001-12-14 07:32:38 51°13.689 2°55.904 130.3   358.8 6.3
2001-12-14 07:32:43 51°13.689 2°55.904 130.2   0.3 6.3
2001-12-14 07:32:48 51°13.689 2°55.904 130.2   325.7 6.3
2001-12-14 07:32:53 51°13.689 2°55.904 130.2   314.4 6.3
2001-12-14 07:32:58 51°13.689 2°55.904 130.2   331 6.3
2001-12-14 07:33:03 51°13.689 2°55.905 130.2   280.9 6.3
2001-12-14 07:33:08 51°13.689 2°55.905 130.2   299.7 6.3
2001-12-14 07:33:13 51°13.689 2°55.905 130.2   292.1 6.3
2001-12-14 07:33:18 51°13.689 2°55.905 130.2   281.3 6.3
2001-12-14 07:33:23 51°13.689 2°55.905 130.2   237 6.3
2001-12-14 07:33:28 51°13.689 2°55.905 130.2   218.4 6.3
2001-12-14 07:36:08 51°13.688 2°55.905 130.5   255.6 6.3
2001-12-14 07:36:13 51°13.688 2°55.905 130.5   245.9 6.3
2001-12-14 07:36:18 51°13.688 2°55.905 130.5   229.1 6.3
2001-12-14 07:36:23 51°13.689 2°55.905 130.5   258 6.3
2001-12-14 07:36:28 51°13.689 2°55.905 130.5   297 6.3
2001-12-14 07:36:33 51°13.689 2°55.905 130.5   346.5 6.3
2001-12-14 07:36:38 51°13.689 2°55.905 130.5   356.8 6.3
2001-12-14 07:36:43 51°13.689 2°55.905 130.5   311.8 6.3
2001-12-14 07:36:48 51°13.689 2°55.905 130.5   315 6.3
2001-12-14 07:36:53 51°13.689 2°55.905 130.5   310.9 6.3
2001-12-14 07:36:58 51°13.689 2°55.905 130.3   331.3 6.3
2001-12-14 07:37:03 51°13.689 2°55.905 130.5   340 6.3
2001-12-14 07:37:08 51°13.689 2°55.905 130.5   0.6 6.3
2001-12-14 07:37:13 51°13.689 2°55.905 130.5   233.2 6.3
2001-12-14 07:37:18 51°13.689 2°55.905 130.5   230.5 6.3
2001-12-14 07:37:23 51°13.689 2°55.905 130.5   239.4 6.3
2001-12-14 07:37:27 51°13.689 2°55.905 130.5   270.3 6.3
2001-12-14 07:37:33 51°13.689 2°55.905 130.3   253.8 6.3
2001-12-14 07:37:38 51°13.689 2°55.905 130.3   231.3 6.3
2001-12-14 07:37:43 51°13.689 2°55.905 130.3   235.3 6.3
2001-12-14 07:37:48 51°13.689 2°55.905 130.3   252.8 6.3
2001-12-14 07:37:53 51°13.689 2°55.905 130.3   242.3 6.3
2001-12-14 07:37:58 51°13.689 2°55.905 130.3   231.6 6.3
2001-12-14 07:38:03 51°13.689 2°55.905 130.3   263.8 6.3
2001-12-14 07:38:08 51°13.689 2°55.905 130.3   230.4 6.3
2001-12-14 07:38:14 51°13.689 2°55.905 130.3   215.4 6.3
2001-12-14 07:38:18 51°13.689 2°55.905 130.3   222.7 6.3
2001-12-14 07:38:23 51°13.689 2°55.905 130.3   248 6.3
2001-12-14 07:38:28 51°13.689 2°55.905 130.3   251.2 6.3
2001-12-14 07:38:33 51°13.689 2°55.905 130.3   229.7 6.3
2001-12-14 07:38:38 51°13.689 2°55.905 130.3   228.9 6.3
2001-12-14 07:38:43 51°13.689 2°55.905 130.3   209.8 6.3
2001-12-14 07:38:48 51°13.689 2°55.905 130.3   227.1 6.3
2001-12-14 07:38:53 51°13.689 2°55.905 130.3   259.9 6.3
2001-12-14 07:38:58 51°13.689 2°55.905 130.3   247.8 6.3
2001-12-14 07:39:03 51°13.689 2°55.905 130.3   256.4 6.3
2001-12-14 07:39:09 51°13.689 2°55.905 130.3   274.9 6.3
2001-12-14 07:39:14 51°13.689 2°55.905 130.3   347.9 6.3
2001-12-14 07:39:18 51°13.689 2°55.905 130.2   308.8 6.3
2001-12-14 07:39:23 51°13.689 2°55.905 130.2   251.5 6.3
2001-12-14 07:39:28 51°13.689 2°55.905 130.2   255.3 6.3
2001-12-14 07:39:33 51°13.689 2°55.905 130.2   247.3 6.3
2001-12-14 07:39:38 51°13.689 2°55.905 130.3   241.6 6.3
2001-12-14 07:39:43 51°13.689 2°55.905 130.2   211.2 6.3
2001-12-14 07:39:49 51°13.689 2°55.905 130.3   214.5 6.3
2001-12-14 07:39:53 51°13.689 2°55.905 130.3   217.5 6.3
2001-12-14 07:39:58 51°13.689 2°55.905 130.3   209.7 6.3
2001-12-14 07:40:03 51°13.689 2°55.905 130.3   189.4 6.3
2001-12-14 07:40:08 51°13.689 2°55.905 130.3   192 6.3
2001-12-14 07:40:13 51°13.689 2°55.905 130.3   205.2 6.3
2001-12-14 07:40:18 51°13.689 2°55.905 130.3   204.6 6.3
2001-12-14 07:40:23 51°13.689 2°55.905 130.5   195.9 6.3
2001-12-14 07:40:28 51°13.689 2°55.905 130.5   191.1 6.3
2001-12-14 07:40:33 51°13.689 2°55.905 130.5   220.6 6.3
2001-12-14 07:40:38 51°13.689 2°55.905 130.5   213.2 6.3
2001-12-14 07:40:43 51°13.689 2°55.905 130.5   235.8 6.3
2001-12-14 07:40:48 51°13.689 2°55.905 130.5   12 6.3
2001-12-14 07:40:53 51°13.689 2°55.905 130.5   359.9 6.3
2001-12-14 07:40:58 51°13.689 2°55.905 130.5   228.7 6.3
2001-12-14 07:41:03 51°13.689 2°55.905 130.5   264 6.3
2001-12-14 07:41:08 51°13.689 2°55.905 130.5   281.5 6.3
2001-12-14 07:41:13 51°13.689 2°55.905 130.3   237.3 6.3
2001-12-14 07:41:19 51°13.689 2°55.905 130.3   218 6.4
2001-12-14 07:41:23 51°13.689 2°55.905 130.5   219.5 6.4
2001-12-14 07:41:28 51°13.689 2°55.905 130.5   209.9 6.4
2001-12-14 07:41:33 51°13.689 2°55.905 130.5   210 6.4
2001-12-14 07:41:38 51°13.689 2°55.905 130.7   226.7 6.4
2001-12-14 07:41:43 51°13.689 2°55.905 130.7   234.9 6.4
2001-12-14 07:41:48 51°13.689 2°55.905 130.7   243.4 6.4
2001-12-14 07:41:54 51°13.689 2°55.905 130.7   196.9 6.4
2001-12-14 07:41:58 51°13.689 2°55.905 130.7   197.5 6.4
2001-12-14 07:42:03 51°13.689 2°55.905 130.7   210.9 6.4
2001-12-14 07:42:08 51°13.689 2°55.905 130.5   236.5 6.3
2001-12-14 07:42:13 51°13.689 2°55.905 130.5   269 6.3
2001-12-14 07:42:18 51°13.689 2°55.905 130.5   244 6.4
2001-12-14 07:42:23 51°13.689 2°55.905 130.5   226.1 6.4
2001-12-14 07:42:28 51°13.689 2°55.905 130.7   242.9 6.4
2001-12-14 07:42:33 51°13.689 2°55.905 130.5   345.4 6.4
2001-12-14 07:42:38 51°13.689 2°55.905 130.5   306.6 6.4
2001-12-14 07:42:43 51°13.689 2°55.905 130.5   239.1 6.4
2001-12-14 07:42:48 51°13.689 2°55.905 130.5   217.2 6.4
2001-12-14 07:42:53 51°13.689 2°55.905 130.5   216 6.4
2001-12-14 07:42:58 51°13.689 2°55.905 130.7   220.2 6.4
2001-12-14 07:43:03 51°13.689 2°55.905 130.5   272.7 6.4
2001-12-14 07:43:08 51°13.689 2°55.905 130.5   284.7 6.4
2001-12-14 07:43:13 51°13.689 2°55.904 130.5   238.5 6.4
2001-12-14 07:43:18 51°13.689 2°55.904 130.5   232.1 6.4
2001-12-14 07:43:23 51°13.689 2°55.904 130.5   251.6 6.4
2001-12-14 07:43:28 51°13.689 2°55.904 130.5   212.4 6.4
2001-12-14 07:43:34 51°13.689 2°55.904 130.5   222.4 6.4
2001-12-14 07:43:38 51°13.689 2°55.905 130.5   231.2 6.4
2001-12-14 07:43:43 51°13.689 2°55.905 130.5   232.4 6.4
2001-12-14 07:43:48 51°13.689 2°55.905 130.5   267.2 6.4
2001-12-14 07:43:53 51°13.689 2°55.905 130.5   320.9 6.4
2001-12-14 07:43:58 51°13.689 2°55.905 130.5   283.3 6.4
2001-12-14 07:44:03 51°13.689 2°55.905 130.5   240.4 6.4
2001-12-14 07:44:08 51°13.689 2°55.905 130.5   225.4 6.4
2001-12-14 07:44:13 51°13.688 2°55.905 130.5   219.2 6.4
2001-12-14 07:44:18 51°13.688 2°55.905 130.5   221.5 6.4
2001-12-14 07:44:23 51°13.688 2°55.905 130.7   209.3 6.4
2001-12-14 07:44:28 51°13.688 2°55.905 130.7   214.5 6.4
2001-12-14 07:44:33 51°13.688 2°55.905 130.7   230.4 6.4
2001-12-14 07:44:39 51°13.688 2°55.905 130.7   262.6 6.4
2001-12-14 07:44:43 51°13.688 2°55.905 130.7   256.2 6.4
2001-12-14 07:44:48 51°13.688 2°55.905 130.7   223.3 6.4
2001-12-14 07:44:52 51°13.688 2°55.905 130.7   220.6 6.4
2001-12-14 07:44:58 51°13.688 2°55.905 130.7   217.4 6.4
2001-12-14 07:45:03 51°13.689 2°55.905 130.5   235 6.4
2001-12-14 07:45:07 51°13.689 2°55.905 130.5   218.8 6.4
2001-12-14 07:45:13 51°13.689 2°55.905 130.5   214.3 6.4
2001-12-14 07:45:18 51°13.689 2°55.905 130.5   231.3 6.4
2001-12-14 07:45:23 51°13.689 2°55.905 130.7   223.8 6.4
2001-12-14 07:45:28 51°13.689 2°55.905 130.7   220.4 6.3
2001-12-14 07:45:33 51°13.689 2°55.905 130.5   224 6.1
2001-12-14 07:45:38 51°13.689 2°55.905 130.5   256.4 6.4
2001-12-14 07:45:43 51°13.689 2°55.905 130.5   226.5 6.3
2001-12-14 07:45:48 51°13.689 2°55.905 130.7   226.6 6.4
2001-12-14 07:45:53 51°13.689 2°55.905 130.7   242.9 6.4
2001-12-14 07:45:58 51°13.689 2°55.905 130.5   285.9 6.4
2001-12-14 07:46:03 51°13.689 2°55.905 130.5   289.6 6.4
2001-12-14 07:46:09 51°13.689 2°55.905 130.5   234.7 6.4
2001-12-14 07:46:13 51°13.689 2°55.905 130.5   214.4 6.4
2001-12-14 07:46:18 51°13.689 2°55.904 130.7   201.1 6.4
2001-12-14 07:46:23 51°13.689 2°55.904 130.7   226.8 6.4
2001-12-14 07:46:29 51°13.689 2°55.905 130.7   217.5 6.4
2001-12-14 07:46:33 51°13.689 2°55.905 130.7   216.8 6.4
2001-12-14 07:46:38 51°13.689 2°55.905 130.7   219.6 6.4
2001-12-14 07:46:43 51°13.689 2°55.904 130.7   217.5 6.4
2001-12-14 07:46:48 51°13.689 2°55.904 130.7   203.9 6.4
2001-12-14 07:46:54 51°13.689 2°55.904 130.7   197.5 6.4
2001-12-14 07:46:58 51°13.689 2°55.904 130.7   230.7 6.4
2001-12-14 07:47:03 51°13.688 2°55.904 130.7   251.2 6.4
2001-12-14 07:47:08 51°13.689 2°55.904 130.7   272.8 6.4
2001-12-14 07:47:13 51°13.689 2°55.904 130.7   288.9 6.4
2001-12-14 07:47:18 51°13.688 2°55.904 130.7   248.7 6.4
2001-12-14 07:47:23 51°13.689 2°55.904 130.7   244.6 6.4
2001-12-14 07:47:28 51°13.689 2°55.904 130.7   273.2 6.4
2001-12-14 07:47:34 51°13.689 2°55.904 130.7   334.3 6.4
2001-12-14 07:47:38 51°13.689 2°55.904 130.5   260.4 6.4
2001-12-14 07:47:43 51°13.689 2°55.904 130.5   239 6.4
2001-12-14 07:47:48 51°13.689 2°55.904 130.7   247.1 6.4
2001-12-14 07:47:53 51°13.688 2°55.904 130.7   239.6 6.4
2001-12-14 07:47:58 51°13.688 2°55.904 130.7   234.1 6.4
2001-12-14 07:48:03 51°13.688 2°55.904 130.7   239.5 6.4
2001-12-14 07:48:08 51°13.688 2°55.904 130.7   346 6.4
2001-12-14 07:48:13 51°13.688 2°55.904 130.7   244.3 6.4
2001-12-14 07:48:18 51°13.688 2°55.904 130.7   227.6 6.4
2001-12-14 07:48:23 51°13.689 2°55.904 130.7   234.4 6.4
2001-12-14 07:48:28 51°13.689 2°55.904 130.7   241.4 6.4
2001-12-14 07:48:33 51°13.689 2°55.904 130.7   251.3 6.4
2001-12-14 07:48:38 51°13.689 2°55.904 130.7   222.7 6.4
2001-12-14 07:48:43 51°13.689 2°55.904 130.7   250.3 6.4
2001-12-14 07:48:48 51°13.689 2°55.904 130.7   245.7 6.4
2001-12-14 07:48:53 51°13.689 2°55.904 130.7   260.6 6.4
2001-12-14 07:48:58 51°13.689 2°55.904 130.5   295.2 6.4
2001-12-14 07:49:03 51°13.689 2°55.905 130.5   255.5 6.4
2001-12-14 07:49:08 51°13.689 2°55.905 130.5   269 6.4
2001-12-14 07:49:13 51°13.689 2°55.905 130.5   245.3 6.4
2001-12-14 07:49:18 51°13.689 2°55.905 130.3   340.6 6.4
2001-12-14 07:49:23 51°13.689 2°55.905 130.3   276.4 6.4
2001-12-14 07:49:28 51°13.689 2°55.905 130.3   242.7 6.4
2001-12-14 07:49:34 51°13.689 2°55.905 130.3   245.2 6.4
2001-12-14 07:49:38 51°13.689 2°55.905 130.3   292.9 6.4
2001-12-14 07:49:43 51°13.689 2°55.905 130.3   271.7 6.4
2001-12-14 07:49:48 51°13.689 2°55.905 130.3   248.1 6.4
2001-12-14 07:49:53 51°13.689 2°55.905 130.3   245.2 6.4
2001-12-14 07:49:58 51°13.689 2°55.905 130.3   247.9 6.4
2001-12-14 07:50:03 51°13.689 2°55.905 130.3   257.1 6.4
2001-12-14 07:50:09 51°13.689 2°55.905 130.3   313 6.4
2001-12-14 07:50:14 51°13.689 2°55.905 130.3   267.4 6.4
2001-12-14 07:50:18 51°13.689 2°55.905 130.3   290.3 6.4
2001-12-14 07:50:23 51°13.689 2°55.905 130.3   294.7 6.4
2001-12-14 07:50:28 51°13.689 2°55.905 130.3   276.7 6.4
2001-12-14 07:50:33 51°13.689 2°55.905 130.2   248.3 6.4
2001-12-14 07:50:38 51°13.689 2°55.905 130.2   232 6.4
2001-12-14 07:50:43 51°13.689 2°55.905 130.2   223 6.4
2001-12-14 07:50:48 51°13.689 2°55.905 130.3   227.7 6.4
2001-12-14 07:50:53 51°13.689 2°55.905 130.3   226.4 6.4
2001-12-14 07:50:58 51°13.689 2°55.905 130.3   216.3 6.4
2001-12-14 07:51:03 51°13.689 2°55.905 130.5   199.9 6.4
2001-12-14 07:51:08 51°13.689 2°55.905 130.5   191.4 6.4
2001-12-14 07:51:13 51°13.689 2°55.905 130.7   200.3 6.4
2001-12-14 07:51:18 51°13.689 2°55.905 130.7   210.3 6.4
2001-12-14 07:51:23 51°13.689 2°55.905 130.8   219.9 6.4
2001-12-14 07:51:28 51°13.689 2°55.905 130.7   227.8 6.4
2001-12-14 07:51:34 51°13.689 2°55.905 130.7   278 6.4
2001-12-14 07:51:38 51°13.689 2°55.905 130.7   325.6 6.5
2001-12-14 07:51:43 51°13.688 2°55.905 130.7   212.7 6.5
2001-12-14 07:51:48 51°13.688 2°55.906 130.8   209.3 6.5
2001-12-14 07:51:53 51°13.689 2°55.906 130.8   205.3 6.5
2001-12-14 07:51:58 51°13.689 2°55.906 130.8   215 6.5
2001-12-14 07:52:03 51°13.689 2°55.906 130.8   206 6.5
2001-12-14 07:52:08 51°13.689 2°55.906 130.7   235.2 6.5
2001-12-14 07:52:13 51°13.689 2°55.906 130.7   241.4 6.5
2001-12-14 07:52:18 51°13.689 2°55.906 130.7   235.3 6.5
2001-12-14 07:52:23 51°13.689 2°55.906 130.8   275.9 6.5
2001-12-14 07:52:28 51°13.689 2°55.906 130.8   241.2 6.5
2001-12-14 07:52:33 51°13.689 2°55.906 131   233.3 6.5
2001-12-14 07:52:38 51°13.689 2°55.906 131   230.2 6.5
2001-12-14 07:52:43 51°13.688 2°55.906 130.8   300.2 6.5
2001-12-14 07:52:48 51°13.689 2°55.906 130.8   283.6 6.5
2001-12-14 07:52:53 51°13.689 2°55.906 131   311.1 6.5
2001-12-14 07:52:58 51°13.689 2°55.906 131   353.9 6.5
2001-12-14 07:53:03 51°13.689 2°55.906 130.8   285.2 6.5
2001-12-14 07:53:08 51°13.689 2°55.906 130.8   280.5 6.5
2001-12-14 07:53:13 51°13.689 2°55.906 130.8   230.7 6.5
2001-12-14 07:53:18 51°13.689 2°55.906 130.8   210.4 6.5
2001-12-14 07:53:23 51°13.689 2°55.906 130.8   218.7 6.5
2001-12-14 07:53:29 51°13.689 2°55.906 131   212.1 6.5
2001-12-14 07:53:34 51°13.689 2°55.906 131   213.9 6.5
2001-12-14 07:53:38 51°13.689 2°55.906 130.8   166.6 6.5
2001-12-14 07:53:43 51°13.688 2°55.906 130.8   154.8 6.5
2001-12-14 07:53:48 51°13.688 2°55.906 130.7   72.4 6.5
2001-12-14 07:53:53 51°13.688 2°55.906 130.5   1.1 6.5
2001-12-14 07:53:58 51°13.688 2°55.906 130.3   254.1 6.5
2001-12-14 07:54:03 51°13.688 2°55.906 130.2   235.9 6.5
2001-12-14 07:54:08 51°13.688 2°55.906 130.2   246.6 6.5
2001-12-14 07:54:13 51°13.688 2°55.906 130.3   243.1 6.5
2001-12-14 07:54:18 51°13.688 2°55.906 130.3   239.3 6.5
2001-12-14 07:54:23 51°13.688 2°55.905 130.3   251.3 6.5
2001-12-14 07:54:28 51°13.688 2°55.905 130.3   246.1 6.5
2001-12-14 07:54:33 51°13.688 2°55.905 130.5   240.7 6.5
2001-12-14 07:54:38 51°13.688 2°55.905 130.5   279.5 6.5
2001-12-14 07:54:43 51°13.688 2°55.905 130.3   338 6.5
2001-12-14 07:54:48 51°13.688 2°55.905 130.2   9.2 6.5
2001-12-14 07:54:53 51°13.688 2°55.905 130   63.9 6.5
2001-12-14 07:54:58 51°13.688 2°55.905 129.8   107.2 6.5
2001-12-14 07:55:03 51°13.688 2°55.905 129.8   136.6 6.5
2001-12-14 07:55:08 51°13.688 2°55.906 129.7   30.7 6.5
2001-12-14 07:55:13 51°13.688 2°55.906 129.5   315.1 6.5
2001-12-14 07:55:18 51°13.689 2°55.906 129.3   319 6.5
2001-12-14 07:55:23 51°13.689 2°55.905 129   311 6.5
2001-12-14 07:55:28 51°13.689 2°55.905 128.8   311.7 6.5
2001-12-14 07:55:33 51°13.689 2°55.906 128.5   307.1 6.5
2001-12-14 07:55:38 51°13.689 2°55.905 128.3   295.4 6.5
2001-12-14 07:55:43 51°13.689 2°55.905 128   280.1 6.5
2001-12-14 07:55:48 51°13.689 2°55.905 127.8   299.5 6.5
2001-12-14 07:55:53 51°13.689 2°55.905 127.7   282 6.5
2001-12-14 07:55:58 51°13.689 2°55.905 127.5   279.7 6.5
2001-12-14 07:56:03 51°13.689 2°55.905 127.3   253.3 6.5
2001-12-14 07:56:08 51°13.689 2°55.905 127.2   256.2 6.5
2001-12-14 07:56:13 51°13.689 2°55.905 127   260.3 6.5
2001-12-14 07:56:18 51°13.689 2°55.905 127   273.9 6.5
2001-12-14 07:56:24 51°13.689 2°55.905 126.7   188.8 6.5
2001-12-14 07:56:28 51°13.689 2°55.905 126.2   112.5 6.5
2001-12-14 07:56:33 51°13.689 2°55.905 125.5 0.1 138.7 6.5
2001-12-14 07:56:38 51°13.688 2°55.906 125 0.2 134.2 6.5
2001-12-14 07:56:43 51°13.688 2°55.906 124.7 0.1 159.4 6.5
2001-12-14 07:56:48 51°13.688 2°55.906 124   188.9 6.5
2001-12-14 07:56:53 51°13.688 2°55.906 123.7   252.1 6.5
2001-12-14 07:56:58 51°13.688 2°55.906 123.3   195.5 6.5
2001-12-14 07:57:03 51°13.688 2°55.906 122.7   190.5 6.5
2001-12-14 07:57:08 51°13.688 2°55.906 121.8 0.1 192.7 6.5
2001-12-14 07:57:13 51°13.688 2°55.905 121.2 0.1 198.6 6.6
2001-12-14 07:57:18 51°13.688 2°55.905 120.3 0.1 202 6.6
2001-12-14 07:57:23 51°13.687 2°55.905 119.5 0.1 203.1 6.6
2001-12-14 07:57:28 51°13.687 2°55.905 118.8 0.1 205.6 6.6
2001-12-14 07:57:33 51°13.687 2°55.905 117.8 0.1 204.5 6.6
2001-12-14 07:57:38 51°13.687 2°55.905 117 0.1 203.7 6.7
2001-12-14 07:57:43 51°13.687 2°55.905 116 0.1 204.6 6.7
2001-12-14 07:57:48 51°13.687 2°55.905 115.2 0.1 205.9 6.7
2001-12-14 07:57:53 51°13.687 2°55.905 114.2 0.1 202.5 6.7
2001-12-14 07:57:58 51°13.687 2°55.905 113.2 0.1 201.3 6.7
2001-12-14 07:58:03 51°13.687 2°55.905 112.2 0.1 204.7 6.8
2001-12-14 07:58:08 51°13.686 2°55.905 111.2 0.1 207 6.8
2001-12-14 07:58:13 51°13.687 2°55.905 110.2 0.1 204.5 6.8
2001-12-14 07:58:18 51°13.688 2°55.905 109.3 0.1 203.7 6.9
2001-12-14 07:58:23 51°13.687 2°55.905 108.3 0.1 206 6.9
2001-12-14 07:58:28 51°13.687 2°55.904 107.5 0.1 225.5 6.9
2001-12-14 07:58:33 51°13.687 2°55.904 107 0.1 287.5 6.9
2001-12-14 07:58:38 51°13.687 2°55.904 106.7 0.2 291.4 6.8
2001-12-14 07:58:43 51°13.687 2°55.903 106.2 0.4 294 6.9
2001-12-14 07:58:48 51°13.688 2°55.901 105.7 0.6 292.7 6.9
2001-12-14 07:58:53 51°13.688 2°55.899 105 0.9 290.4 6.9
2001-12-14 07:58:58 51°13.689 2°55.896 104.3 1.2 288.7 7.1
2001-12-14 07:59:03 51°13.69 2°55.892 103.3 1.7 286.2 5.2
2001-12-14 07:59:09 51°13.691 2°55.885 101.8 2.3 283.7 -999
2001-12-14 07:59:14 51°13.691 2°55.879 100.5 2.6 282.1 -999
2001-12-14 07:59:19 51°13.692 2°55.872 99.2 3 280.5 -999
2001-12-14 07:59:24 51°13.692 2°55.866 98.2 3.1 280 -999
2001-12-14 07:59:29 51°13.693 2°55.859 97 3 279 -999
2001-12-14 07:59:34 51°13.694 2°55.853 95.8 3 278.4 -999
2001-12-14 07:59:39 51°13.694 2°55.846 94.5 2.9 277.2 -999
2001-12-14 07:59:43 51°13.695 2°55.841 93.5 2.9 276.5 9
2001-12-14 07:59:48 51°13.695 2°55.835 92.7 2.9 275.7 9.2
2001-12-14 07:59:53 51°13.695 2°55.829 91.8 2.9 275.4 9.4
2001-12-14 07:59:58 51°13.696 2°55.822 91.2 2.9 274.5 9.5
2001-12-14 08:00:03 51°13.696 2°55.816 90.2 3 274 -999
2001-12-14 08:00:08 51°13.696 2°55.809 89.2 3 273.8 9.6
2001-12-14 08:00:14 51°13.696 2°55.802 88 2.9 272.6 -999
2001-12-14 08:00:19 51°13.696 2°55.796 86.7 2.8 272.2 -999
2001-12-14 08:00:23 51°13.696 2°55.79 85.5 2.8 272.2 10.7
2001-12-14 08:00:28 51°13.696 2°55.784 84.5 2.8 271.1 11.3
2001-12-14 08:00:33 51°13.696 2°55.778 83.5 2.7 269.7 12.1
2001-12-14 08:00:38 51°13.695 2°55.773 82.5 2.6 268.9 12.6
2001-12-14 08:00:43 51°13.695 2°55.767 81.5 2.5 268.1 12.7
2001-12-14 08:00:48 51°13.695 2°55.762 80.7 2.4 267.5 12.7
2001-12-14 08:00:53 51°13.696 2°55.758 79.8 2.4 267.3 12.7
2001-12-14 08:00:58 51°13.696 2°55.753 78.8 2.3 267.1 12.7
2001-12-14 08:01:03 51°13.696 2°55.749 77.5 2 269.2 12.5
2001-12-14 08:01:08 51°13.696 2°55.748 74.2 1.5 272.6 12.7
2001-12-14 08:01:13 51°13.697 2°55.748 67.5 0.6 309.1 12.6
2001-12-14 08:01:18 51°13.697 2°55.749 60 0.6 8 12.7
2001-12-14 08:01:23 51°13.699 2°55.751 51.5 1.3 30 12.7
2001-12-14 08:01:28 51°13.702 2°55.753 41.8 1.9 28.2 12.7
2001-12-14 08:01:33 51°13.706 2°55.755 31.5 2.6 22.7 12.7
2001-12-14 08:01:38 51°13.711 2°55.756 21.5 3.1 16.6 12.5
2001-12-14 08:01:43 51°13.716 2°55.756 10.3 3.8 5.9 11.8
2001-12-14 08:01:48 51°13.722 2°55.754 359.2 4.2 358.4 10.3
2001-12-14 08:01:53 51°13.729 2°55.75 348.3 4.8 346.3 9.9
2001-12-14 08:01:58 51°13.735 2°55.744 337.5 5.2 336.6 9.6
2001-12-14 08:02:03 51°13.742 2°55.736 326.3 5.6 327.4 9.6
2001-12-14 08:02:09 51°13.749 2°55.725 318.8 5.8 320.4 9.6
2001-12-14 08:02:13 51°13.753 2°55.718 316 5.9 315 9.6
2001-12-14 08:02:18 51°13.758 2°55.708 316.3 5.9 313.1 9.5
2001-12-14 08:02:23 51°13.764 2°55.699 317.3 5.8 314 9.5
2001-12-14 08:02:28 51°13.77 2°55.689 317.2 5.8 313.8 9.4
2001-12-14 08:02:33 51°13.775 2°55.68 317.7 5.7 314.6 9.5
2001-12-14 08:02:38 51°13.78 2°55.671 318.2 5.7 314.5 9.6
2001-12-14 08:02:43 51°13.786 2°55.663 319.2 5.6 315.7 9.5
2001-12-14 08:02:48 51°13.792 2°55.655 321 5.5 317.1 10
2001-12-14 08:02:53 51°13.798 2°55.648 323.2 5.5 319.5 10
2001-12-14 08:02:58 51°13.804 2°55.641 325.7 5.4 321.8 10.1
2001-12-14 08:03:03 51°13.81 2°55.634 328.2 5.3 324.4 9.9
2001-12-14 08:03:08 51°13.816 2°55.628 330.8 5.3 326.6 9.6
2001-12-14 08:03:13 51°13.823 2°55.623 333.7 5.2 330.4 9.3
2001-12-14 08:03:18 51°13.829 2°55.619 336.3 5.2 333.2 9.2
2001-12-14 08:03:23 51°13.836 2°55.614 338 5.2 334.9 9.2
2001-12-14 08:03:28 51°13.843 2°55.61 338.8 5.2 335.7 9.4
2001-12-14 08:03:33 51°13.849 2°55.605 339.3 5.1 336.3 9.5
2001-12-14 08:03:38 51°13.856 2°55.6 339.5 5.1 336.3 9.6
2001-12-14 08:03:43 51°13.862 2°55.596 339.2 5.1 336.2 9.5
2001-12-14 08:03:48 51°13.868 2°55.591 339.2 5.1 336.2 9.6
2001-12-14 08:03:53 51°13.874 2°55.586 339.5 5.1 336.1 9.5
2001-12-14 08:03:59 51°13.882 2°55.58 339.8 5.1 336.3 9.5
2001-12-14 08:04:03 51°13.887 2°55.577 340.2 5.2 336.6 9.5
2001-12-14 08:04:08 51°13.894 2°55.572 340.3 5.2 336.8 9.5
2001-12-14 08:04:13 51°13.901 2°55.568 340.5 5.3 337.1 9.5
2001-12-14 08:04:18 51°13.908 2°55.563 340.3 5.3 337.2 9.6
2001-12-14 08:04:23 51°13.914 2°55.558 340.2 5.3 337.3 9.6
2001-12-14 08:04:28 51°13.921 2°55.553 340 5.4 337.2 9.6
2001-12-14 08:04:34 51°13.93 2°55.548 339.7 5.4 337 9.7
2001-12-14 08:04:38 51°13.935 2°55.544 339.7 5.4 336.9 9.7
2001-12-14 08:04:43 51°13.942 2°55.54 340.2 5.5 336.9 9.7
2001-12-14 08:04:48 51°13.95 2°55.535 340.8 5.5 337.3 9.6
2001-12-14 08:04:54 51°13.958 2°55.53 341.2 5.5 337.7 9.6
2001-12-14 08:04:58 51°13.964 2°55.526 341.3 5.6 338 9.6
2001-12-14 08:05:03 51°13.971 2°55.521 341.2 5.6 338 9.6
2001-12-14 08:05:08 51°13.979 2°55.517 341.2 5.7 338.1 9.5
2001-12-14 08:05:13 51°13.986 2°55.512 341 5.7 337.9 9.6
2001-12-14 08:05:18 51°13.993 2°55.507 340.8 5.8 337.6 9.6
2001-12-14 08:05:23 51°14.001 2°55.502 340.5 5.8 337.3 9.6
2001-12-14 08:05:28 51°14.009 2°55.497 340.5 5.8 337.1 9.5
2001-12-14 08:05:33 51°14.016 2°55.492 340.3 5.9 336.9 9.6
2001-12-14 08:05:39 51°14.025 2°55.486 340.5 5.9 336.7 9.6
2001-12-14 08:05:43 51°14.031 2°55.482 340.5 5.9 336.8 9.6
2001-12-14 08:05:48 51°14.039 2°55.477 340.5 5.9 336.7 9.6
2001-12-14 08:05:53 51°14.046 2°55.472 340.7 6 336.8 9.5
2001-12-14 08:05:58 51°14.054 2°55.466 340.7 6 336.8 9.6
2001-12-14 08:06:03 51°14.061 2°55.461 340.3 6 336.7 9.4
2001-12-14 08:06:08 51°14.069 2°55.455 339.7 6 336.3 9.4
2001-12-14 08:06:13 51°14.077 2°55.45 339.3 6.1 335.7 9.3
2001-12-14 08:06:18 51°14.085 2°55.444 339.2 6.3 335.6 9.6
2001-12-14 08:06:23 51°14.094 2°55.439 339.8 6.4 335.7 9.6
2001-12-14 08:06:28 51°14.102 2°55.433 340.2 6.5 336.1 9.5
2001-12-14 08:06:33 51°14.11 2°55.427 339.8 6.7 336 9.6
2001-12-14 08:06:38 51°14.119 2°55.42 339 6.8 335.6 9.4
2001-12-14 08:06:43 51°14.127 2°55.413 337.8 6.9 334.7 9.6
2001-12-14 08:06:48 51°14.136 2°55.406 337.2 6.9 333.8 9.6
2001-12-14 08:06:53 51°14.144 2°55.398 336.3 7 333.2 9.6
2001-12-14 08:06:58 51°14.153 2°55.391 335.3 7 332.5 9.5
2001-12-14 08:07:03 51°14.161 2°55.383 334.3 7.1 331.3 9.6
2001-12-14 08:07:08 51°14.17 2°55.375 333 7.1 330.2 9.6
2001-12-14 08:07:14 51°14.18 2°55.364 331.5 7.2 328.8 9.6
2001-12-14 08:07:18 51°14.186 2°55.357 329.8 7.2 327.5 9.7
2001-12-14 08:07:23 51°14.194 2°55.348 328.5 7.2 325.8 9.6
2001-12-14 08:07:29 51°14.204 2°55.336 327.2 7.2 324.5 9.6
2001-12-14 08:07:33 51°14.211 2°55.329 325.8 7.3 323.2 9.7
2001-12-14 08:07:38 51°14.219 2°55.319 324 7.3 321.5 9.7
2001-12-14 08:07:43 51°14.227 2°55.309 322.3 7.3 319.8 9.7
2001-12-14 08:07:48 51°14.235 2°55.299 320 7.3 317.9 9.7
2001-12-14 08:07:53 51°14.242 2°55.288 317.8 7.3 315.8 9.7
2001-12-14 08:07:58 51°14.249 2°55.277 315.8 7.3 314.1 9.7
2001-12-14 08:08:03 51°14.256 2°55.264 314.5 7.3 312.4 9.7
2001-12-14 08:08:08 51°14.262 2°55.252 313.8 7.3 311.8 9.7
2001-12-14 08:08:13 51°14.269 2°55.24 313.2 7.3 310.8 9.8
2001-12-14 08:08:18 51°14.276 2°55.227 312.5 7.3 310.3 9.8
2001-12-14 08:08:23 51°14.282 2°55.215 311.7 7.4 309.3 9.8
2001-12-14 08:08:28 51°14.288 2°55.202 310.7 7.4 308.2 9.9
2001-12-14 08:08:33 51°14.295 2°55.189 310.3 7.4 307.5 9.9
2001-12-14 08:08:38 51°14.301 2°55.176 310 7.4 307.3 9.9
2001-12-14 08:08:43 51°14.307 2°55.163 309.8 7.5 307 9.9
2001-12-14 08:08:48 51°14.314 2°55.149 309.5 7.7 306.8 9.9
2001-12-14 08:08:53 51°14.32 2°55.134 309 8 306.2 9.9
2001-12-14 08:08:58 51°14.327 2°55.119 308.5 8.2 305.7 9.9
2001-12-14 08:09:03 51°14.334 2°55.103 307.7 8.5 304.7 9.7
2001-12-14 08:09:08 51°14.34 2°55.087 306.8 8.6 304 9.7
2001-12-14 08:09:14 51°14.349 2°55.068 306.2 8.8 303.2 9.6
2001-12-14 08:09:18 51°14.354 2°55.054 305.7 8.9 302.5 9.5
2001-12-14 08:09:23 51°14.36 2°55.037 304.5 9 301.1 9.4
2001-12-14 08:09:28 51°14.366 2°55.019 303.5 9.1 299.6 9.3
2001-12-14 08:09:33 51°14.372 2°55.001 301.3 9.2 297.8 9.3
2001-12-14 08:09:38 51°14.377 2°54.982 299.7 9.2 295.8 9.5
2001-12-14 08:09:43 51°14.382 2°54.963 297.5 9.3 293.6 9.5
2001-12-14 08:09:47 51°14.386 2°54.948 293.3 9.3 290.3 9.5
2001-12-14 08:09:53 51°14.389 2°54.922 288.8 9.6 285.7 9.5
2001-12-14 08:09:58 51°14.391 2°54.9 283.3 10 281.6 9.5
2001-12-14 08:10:03 51°14.392 2°54.876 277.8 10.7 275.3 9.3
2001-12-14 08:10:09 51°14.392 2°54.845 274.2 11.1 272 9.1
2001-12-14 08:10:13 51°14.391 2°54.823 271.3 11.8 268 9
2001-12-14 08:10:18 51°14.39 2°54.796 270.2 12.1 266.6 9.2
2001-12-14 08:10:23 51°14.388 2°54.768 268.8 12.5 265.4 9.2
2001-12-14 08:10:28 51°14.386 2°54.74 266.2 12.7 263.4 9.4
2001-12-14 08:10:33 51°14.382 2°54.712 262 12.9 260 9.3
2001-12-14 08:10:38 51°14.376 2°54.684 258.3 13.1 256.4 9.4
2001-12-14 08:10:43 51°14.37 2°54.656 255 13.3 252.7 9.1
2001-12-14 08:10:48 51°14.364 2°54.628 253.3 13.4 250.9 9
2001-12-14 08:10:53 51°14.357 2°54.6 252.3 13.5 249.4 8.8
2001-12-14 08:10:58 51°14.35 2°54.572 251.5 13.6 248.8 8.7
2001-12-14 08:11:03 51°14.343 2°54.544 251.5 13.6 248.1 8.6
2001-12-14 08:11:08 51°14.336 2°54.516 251 13.7 247.5 8.5
2001-12-14 08:11:13 51°14.328 2°54.488 249.2 13.7 246.8 8.5
2001-12-14 08:11:19 51°14.318 2°54.456 247.5 13.7 245 8.3
2001-12-14 08:11:23 51°14.31 2°54.435 245.7 13.8 242.7 8.2
2001-12-14 08:11:28 51°14.301 2°54.408 243.8 13.8 241.8 8.3
2001-12-14 08:11:33 51°14.291 2°54.382 241.8 13.9 239.4 8.3
2001-12-14 08:11:38 51°14.281 2°54.356 241 13.9 238.3 8.4
2001-12-14 08:11:43 51°14.27 2°54.33 240.2 13.9 237.2 8.3
2001-12-14 08:11:48 51°14.26 2°54.304 239.5 13.9 237.4 8.3
2001-12-14 08:11:53 51°14.249 2°54.278 239.3 14 236.6 8.2
2001-12-14 08:11:58 51°14.239 2°54.252 240.7 14 237.5 8.1
2001-12-14 08:12:04 51°14.227 2°54.22 241.8 14 238.7 8.1
2001-12-14 08:12:08 51°14.22 2°54.198 243.3 14 240.1 8.1
2001-12-14 08:12:13 51°14.21 2°54.171 244.5 14 240.8 8.2
2001-12-14 08:12:18 51°14.202 2°54.144 245.2 14 242.4 8.2
2001-12-14 08:12:23 51°14.192 2°54.116 245.7 14 242 8.2
2001-12-14 08:12:29 51°14.181 2°54.082 246 14.1 243.3 7.9
2001-12-14 08:12:33 51°14.174 2°54.06 245.5 14.1 242.5 8
2001-12-14 08:12:38 51°14.165 2°54.033 245.5 14.1 242.8 8.2
2001-12-14 08:12:43 51°14.156 2°54.005 245 14 242.2 8.1
2001-12-14 08:12:48 51°14.146 2°53.978 244.8 14 241.2 8.1
2001-12-14 08:12:53 51°14.137 2°53.951 244.2 14 241.7 7.9
2001-12-14 08:12:58 51°14.128 2°53.923 244.8 14.1 241 8.2
2001-12-14 08:13:03 51°14.118 2°53.896 244 14.1 240.9 8.3
2001-12-14 08:13:09 51°14.107 2°53.863 243.5 14.2 241.1 8.2
2001-12-14 08:13:13 51°14.099 2°53.842 243.3 14.2 240.1 8.2
2001-12-14 08:13:18 51°14.089 2°53.814 243.5 14.2 240.9 8.3
2001-12-14 08:13:23 51°14.08 2°53.787 243.8 14.2 240.6 8.3
2001-12-14 08:13:28 51°14.07 2°53.759 243.5 14.2 240.8 8.3
2001-12-14 08:13:33 51°14.061 2°53.731 244.5 14.3 241.2 8.2
2001-12-14 08:13:38 51°14.051 2°53.704 244 14.3 241.3 8.3
2001-12-14 08:13:43 51°14.041 2°53.676 244.3 14.3 241.3 8.4
2001-12-14 08:13:49 51°14.03 2°53.643 244.3 14.3 241.5 8.4
2001-12-14 08:13:53 51°14.022 2°53.621 244.2 14.3 241.3 8.4
2001-12-14 08:13:58 51°14.012 2°53.593 243.8 14.3 241 8.5
2001-12-14 08:14:03 51°14.003 2°53.565 244 14.4 240.9 8.3
2001-12-14 08:14:08 51°13.993 2°53.538 244.2 14.4 240.9 8.2
2001-12-14 08:14:13 51°13.983 2°53.51 244.3 14.4 240.8 8.4
2001-12-14 08:14:18 51°13.974 2°53.482 244 14.4 241.1 8.5
2001-12-14 08:14:23 51°13.964 2°53.454 244.2 14.4 240.9 8.3
2001-12-14 08:14:28 51°13.954 2°53.427 244 14.4 240.9 8.5
2001-12-14 08:14:33 51°13.944 2°53.398 243.8 14.5 241 8.5
2001-12-14 08:14:38 51°13.935 2°53.37 244.2 14.5 241 8.6
2001-12-14 08:14:43 51°13.924 2°53.343 243.7 14.5 240.5 8.5
2001-12-14 08:14:48 51°13.915 2°53.314 243.7 14.5 241.1 8.5
2001-12-14 08:14:53 51°13.905 2°53.286 244.2 14.5 240.7 8.6
2001-12-14 08:14:58 51°13.895 2°53.259 243.8 14.5 240.8 8.5
2001-12-14 08:15:03 51°13.886 2°53.23 244.2 14.5 241.1 8.6
2001-12-14 08:15:08 51°13.874 2°53.203 242.8 14.5 239.9 8.7
2001-12-14 08:15:13 51°13.866 2°53.174 243.8 14.5 241.6 8.6
2001-12-14 08:15:18 51°13.855 2°53.147 244.3 14.6 240.2 8.7
2001-12-14 08:15:23 51°13.845 2°53.118 244 14.6 241.6 8.7
2001-12-14 08:15:29 51°13.834 2°53.084 243.7 14.6 239.9 8.7
2001-12-14 08:15:33 51°13.825 2°53.063 243.7 14.5 240.2 8.8
2001-12-14 08:15:38 51°13.815 2°53.035 243 14.5 240 8.9
2001-12-14 08:15:43 51°13.806 2°53.006 244.8 14.6 240.4 8.9
2001-12-14 08:15:49 51°13.793 2°52.974 243.3 14.6 241.3 8.9
2001-12-14 08:15:53 51°13.786 2°52.95 243.8 14.6 241.5 8.8
2001-12-14 08:15:58 51°13.776 2°52.922 244.5 14.6 240.8 8.9
2001-12-14 08:16:03 51°13.766 2°52.894 244 14.6 241.1 8.9
2001-12-14 08:16:09 51°13.754 2°52.86 244 14.7 240.3 9
2001-12-14 08:16:14 51°13.743 2°52.833 243 14.6 240.3 9
2001-12-14 08:16:18 51°13.736 2°52.809 244.3 14.7 239.3 9.1
2001-12-14 08:16:23 51°13.725 2°52.781 243.5 14.7 240.7 9.1
2001-12-14 08:16:29 51°13.714 2°52.746 243.7 14.7 239.7 9.1
2001-12-14 08:16:33 51°13.705 2°52.724 244.2 14.7 240.8 9.2
2001-12-14 08:16:39 51°13.693 2°52.69 243.3 14.7 240.4 9.3
2001-12-14 08:16:43 51°13.685 2°52.668 244.2 14.8 240.3 9.3
2001-12-14 08:16:48 51°13.675 2°52.639 243.5 14.8 240.5 9.3
2001-12-14 08:16:53 51°13.664 2°52.611 243.2 14.7 239.5 9.3
2001-12-14 08:16:58 51°13.655 2°52.582 244.3 14.8 240.8 9.2
2001-12-14 08:17:03 51°13.644 2°52.555 243.3 14.8 239.5 9.3
2001-12-14 08:17:08 51°13.635 2°52.525 244 14.8 241.3 9.3
2001-12-14 08:17:13 51°13.625 2°52.497 244 14.8 241.2 9.4
2001-12-14 08:17:18 51°13.614 2°52.469 244.2 14.8 240.3 9.5
2001-12-14 08:17:23 51°13.605 2°52.44 243.2 14.8 241.2 9.4
2001-12-14 08:17:28 51°13.594 2°52.411 243.8 14.9 239.9 9.3
2001-12-14 08:17:33 51°13.584 2°52.383 243.3 14.9 241 9.4
2001-12-14 08:17:38 51°13.574 2°52.354 243.3 14.9 239.1 9.4
2001-12-14 08:17:43 51°13.563 2°52.325 244.3 15 240.9 9.3
2001-12-14 08:17:48 51°13.554 2°52.296 243.7 14.9 241 9.4
2001-12-14 08:17:54 51°13.541 2°52.262 244 14.9 240.1 9.5
2001-12-14 08:17:58 51°13.533 2°52.239 244.2 14.9 241 9.5
2001-12-14 08:18:03 51°13.523 2°52.211 243.3 14.9 240.3 9.5
2001-12-14 08:18:08 51°13.513 2°52.182 244.2 14.9 240.6 9.6
2001-12-14 08:18:13 51°13.502 2°52.153 243.8 14.9 240.6 9.6
2001-12-14 08:18:18 51°13.493 2°52.124 244.3 15 241.3 9.6
2001-12-14 08:18:23 51°13.483 2°52.095 244.8 14.9 240.9 9.5
2001-12-14 08:18:29 51°13.471 2°52.061 244 14.9 241.7 9.6
2001-12-14 08:18:33 51°13.463 2°52.038 243.7 14.9 240.4 9.6
2001-12-14 08:18:38 51°13.453 2°52.008 244.5 15 241.1 9.6
2001-12-14 08:18:44 51°13.44 2°51.975 243.2 15 240.4 9.7
2001-12-14 08:18:49 51°13.43 2°51.945 243.7 15 240.1 9.7
2001-12-14 08:18:53 51°13.422 2°51.922 243.8 15 240.4 9.7
2001-12-14 08:18:58 51°13.412 2°51.893 243.5 15.1 240.5 9.7
2001-12-14 08:19:03 51°13.401 2°51.865 243.2 15 240.5 9.6
2001-12-14 08:19:08 51°13.391 2°51.835 244.5 15 240.3 9.6
2001-12-14 08:19:13 51°13.381 2°51.807 243.5 14.9 240.8 9.6
2001-12-14 08:19:18 51°13.371 2°51.778 243.8 15 240.2 9.6
2001-12-14 08:19:23 51°13.361 2°51.749 244.7 15.1 241.3 9.6
2001-12-14 08:19:28 51°13.35 2°51.721 243 15 240.2 9.6
2001-12-14 08:19:33 51°13.341 2°51.691 244 15 241 9.6
2001-12-14 08:19:38 51°13.33 2°51.662 244 15.1 240.7 9.6
2001-12-14 08:19:43 51°13.32 2°51.633 243.8 15 241.1 9.7
2001-12-14 08:19:48 51°13.309 2°51.605 243.8 15 240 9.5
2001-12-14 08:19:53 51°13.3 2°51.575 244 15 241.4 9.6
2001-12-14 08:19:58 51°13.289 2°51.547 243.7 15 240.1 9.6
2001-12-14 08:20:03 51°13.279 2°51.518 244.2 15.1 240.8 9.6
2001-12-14 08:20:08 51°13.269 2°51.488 243.7 15.1 241.1 9.6
2001-12-14 08:20:13 51°13.258 2°51.46 243.8 15 240.3 9.6
2001-12-14 08:20:18 51°13.249 2°51.43 244.3 15.1 241 9.6
2001-12-14 08:20:23 51°13.238 2°51.402 244 15.1 240.7 9.6
2001-12-14 08:20:28 51°13.229 2°51.372 245 15 241.9 9.6
2001-12-14 08:20:33 51°13.218 2°51.344 243.7 15 240.5 9.6
2001-12-14 08:20:38 51°13.208 2°51.314 243.8 15.1 241.2 9.5
2001-12-14 08:20:43 51°13.198 2°51.285 244 15.1 240.7 9.6
2001-12-14 08:20:49 51°13.185 2°51.251 243 15.1 240.6 9.6
2001-12-14 08:20:53 51°13.178 2°51.227 243.5 15.1 240.9 9.7
2001-12-14 08:20:58 51°13.166 2°51.199 242.8 15.1 239.9 9.7
2001-12-14 08:21:03 51°13.157 2°51.169 243.5 15.1 240.8 9.7
2001-12-14 08:21:08 51°13.146 2°51.14 243.7 15.1 240.8 9.8
2001-12-14 08:21:14 51°13.134 2°51.105 244 15.1 241.1 9.8
2001-12-14 08:21:18 51°13.125 2°51.082 243.5 15.1 240.6 9.7
2001-12-14 08:21:23 51°13.116 2°51.052 245.5 15.2 241.6 9.8
2001-12-14 08:21:28 51°13.105 2°51.023 243.8 15.1 240.9 9.8
2001-12-14 08:21:33 51°13.095 2°50.993 244.5 15.2 241.3 9.8
2001-12-14 08:21:38 51°13.085 2°50.964 244 15.1 241.8 9.9
2001-12-14 08:21:43 51°13.075 2°50.935 244 15.1 241.1 9.8
2001-12-14 08:21:48 51°13.065 2°50.906 244.5 15.2 241.1 9.9
2001-12-14 08:21:53 51°13.055 2°50.877 244 15.1 241.1 9.9
2001-12-14 08:21:59 51°13.042 2°50.842 243.2 15.1 240.1 10
2001-12-14 08:22:03 51°13.034 2°50.818 244 15.1 240.9 9.9
2001-12-14 08:22:09 51°13.021 2°50.784 243 15 240.1 9.9
2001-12-14 08:22:13 51°13.013 2°50.761 242.8 15 239.7 9.9
2001-12-14 08:22:18 51°13.003 2°50.732 244 15 240.4 9.9
2001-12-14 08:22:23 51°12.992 2°50.704 242.8 15 239.5 9.8
2001-12-14 08:22:28 51°12.983 2°50.674 243.8 15 240.8 9.9
2001-12-14 08:22:33 51°12.972 2°50.647 243 15 239.9 9.8
2001-12-14 08:22:38 51°12.963 2°50.617 244.3 15 240.5 9.9
2001-12-14 08:22:43 51°12.952 2°50.588 244 15 241.4 9.9
2001-12-14 08:22:48 51°12.943 2°50.559 244.8 15 241.3 9.9
2001-12-14 08:22:54 51°12.93 2°50.525 243.8 15 241 9.9
2001-12-14 08:22:59 51°12.921 2°50.495 243.8 15 240.8 10
2001-12-14 08:23:02 51°12.914 2°50.478 243.8 15.1 240.9 10
2001-12-14 08:23:08 51°12.902 2°50.443 243.7 15.1 241.4 10
2001-12-14 08:23:13 51°12.891 2°50.414 243.7 15.1 240.3 10
2001-12-14 08:23:18 51°12.882 2°50.385 243.5 15.1 241.2 10
2001-12-14 08:23:23 51°12.871 2°50.356 243.3 15.1 240.2 10
2001-12-14 08:23:28 51°12.861 2°50.327 243.7 15.1 241.2 10
2001-12-14 08:23:33 51°12.85 2°50.298 243.3 15.1 240.2 10
2001-12-14 08:23:38 51°12.84 2°50.269 243.7 15 240.7 10
2001-12-14 08:23:43 51°12.83 2°50.24 243.2 15.1 240.3 10
2001-12-14 08:23:48 51°12.82 2°50.21 244.5 15.1 241 10
2001-12-14 08:23:53 51°12.809 2°50.182 243.5 15.1 240.7 10
2001-12-14 08:23:58 51°12.8 2°50.152 244 15.1 241.4 10
2001-12-14 08:24:03 51°12.789 2°50.123 244.5 15.1 241.2 10
2001-12-14 08:24:09 51°12.778 2°50.088 244.2 15 242 10
2001-12-14 08:24:13 51°12.769 2°50.065 244.3 15 240.6 10
2001-12-14 08:24:19 51°12.758 2°50.03 244.5 15.1 241.8 10
2001-12-14 08:24:23 51°12.749 2°50.007 243.2 15.1 240.2 10.1
2001-12-14 08:24:28 51°12.739 2°49.977 243.2 15.1 240.8 10
2001-12-14 08:24:32 51°12.73 2°49.955 243 15.1 240.1 10.1
2001-12-14 08:24:38 51°12.719 2°49.92 244.2 15.1 240.7 10.1
2001-12-14 08:24:43 51°12.708 2°49.891 243.7 15.1 240.3 10.1
2001-12-14 08:24:48 51°12.699 2°49.861 244 15.1 241.6 10
2001-12-14 08:24:53 51°12.688 2°49.832 244.7 15.2 240.9 10
2001-12-14 08:24:58 51°12.678 2°49.802 244.3 15.1 242.1 10.1
2001-12-14 08:25:03 51°12.668 2°49.773 244.2 15.1 240.7 10.1
2001-12-14 08:25:08 51°12.657 2°49.744 244.2 15.2 241.7 10.1
2001-12-14 08:25:13 51°12.648 2°49.714 244.2 15.3 241.2 10.1
2001-12-14 08:25:18 51°12.637 2°49.685 244.8 15.3 241.6 10
2001-12-14 08:25:23 51°12.627 2°49.655 244.2 15.2 241.3 10.2
2001-12-14 08:25:29 51°12.615 2°49.62 244.2 15.2 241.2 10.2
2001-12-14 08:25:33 51°12.607 2°49.596 243.7 15.2 241 10.2
2001-12-14 08:25:38 51°12.597 2°49.567 243.7 15.2 241.3 10.2
2001-12-14 08:25:43 51°12.587 2°49.537 244.3 15.3 241.3 10.2
2001-12-14 08:25:48 51°12.576 2°49.508 244.2 15.3 241.7 10.2
2001-12-14 08:25:53 51°12.566 2°49.479 243.7 15.2 240.6 10.2
2001-12-14 08:25:58 51°12.556 2°49.449 245.3 15.2 242.1 10.2
2001-12-14 08:26:03 51°12.547 2°49.419 246 15.2 242.7 10.3
2001-12-14 08:26:07 51°12.539 2°49.395 246.3 15.1 243.2 10.2
2001-12-14 08:26:13 51°12.528 2°49.359 247.3 15.2 243.2 10.3
2001-12-14 08:26:18 51°12.519 2°49.328 247.2 15.3 244.3 10.2
2001-12-14 08:26:23 51°12.51 2°49.298 247.3 15.3 243.8 10.2
2001-12-14 08:26:28 51°12.5 2°49.269 247.7 15.2 243.5 10.2
2001-12-14 08:26:34 51°12.489 2°49.232 247.3 15.1 245 10.2
2001-12-14 08:26:38 51°12.482 2°49.208 247.5 15.2 243.1 10.2
2001-12-14 08:26:43 51°12.474 2°49.176 249.3 15.2 246.3 10.2
2001-12-14 08:26:49 51°12.464 2°49.14 249.7 15.2 246.1 10.1
2001-12-14 08:26:53 51°12.457 2°49.115 250.7 15.1 247.4 10.3
2001-12-14 08:26:58 51°12.449 2°49.085 250.7 15.1 246 10.3
2001-12-14 08:27:03 51°12.441 2°49.054 251.2 15.1 248 10.4
2001-12-14 08:27:09 51°12.431 2°49.017 250.7 15.1 246.8 10.4
2001-12-14 08:27:13 51°12.425 2°48.992 251.5 15.2 247.8 10.4
2001-12-14 08:27:18 51°12.416 2°48.962 250.7 15.2 246.9 10.5
2001-12-14 08:27:23 51°12.408 2°48.93 251.3 15.2 247.6 10.6
2001-12-14 08:27:28 51°12.4 2°48.9 251.5 15.2 247.6 10.5
2001-12-14 08:27:34 51°12.39 2°48.863 251.7 15.2 247.4 10.6
2001-12-14 08:27:38 51°12.384 2°48.838 250.8 15.2 247.8 10.6
2001-12-14 08:27:44 51°12.373 2°48.801 250 15.3 246.3 10.6
2001-12-14 08:27:48 51°12.367 2°48.776 250.3 15.3 246.9 10.7
2001-12-14 08:27:53 51°12.358 2°48.745 249.5 15.3 245.7 10.7
2001-12-14 08:27:58 51°12.35 2°48.714 250 15.2 246.6 10.7
2001-12-14 08:28:03 51°12.342 2°48.683 250 15.2 246.7 10.8
2001-12-14 08:28:08 51°12.333 2°48.653 249.5 15.2 246.1 10.8
2001-12-14 08:28:13 51°12.324 2°48.621 250 15.4 246.2 10.8
2001-12-14 08:28:18 51°12.316 2°48.59 250 15.4 246.8 10.9
2001-12-14 08:28:23 51°12.306 2°48.56 249.2 15.3 245.5 10.9
2001-12-14 08:28:28 51°12.3 2°48.528 250.7 15.3 247.5 10.9
2001-12-14 08:28:33 51°12.289 2°48.498 248.5 15.3 245.1 10.8
2001-12-14 08:28:38 51°12.282 2°48.466 250.2 15.4 247 10.9
2001-12-14 08:28:43 51°12.272 2°48.436 248.8 15.4 245.4 11
2001-12-14 08:28:47 51°12.266 2°48.411 250 15.3 246.6 11
2001-12-14 08:28:54 51°12.252 2°48.368 249.2 15.4 245 11
2001-12-14 08:28:58 51°12.248 2°48.342 250.5 15.4 247.3 11
2001-12-14 08:29:03 51°12.237 2°48.312 249 15.4 245 10.9
2001-12-14 08:29:09 51°12.229 2°48.274 250.5 15.3 247.2 11.1
2001-12-14 08:29:13 51°12.221 2°48.25 249.5 15.3 245.9 11.1
2001-12-14 08:29:19 51°12.211 2°48.213 249.3 15.3 246.1 11.2
2001-12-14 08:29:23 51°12.204 2°48.188 249.3 15.3 245.8 11.2
2001-12-14 08:29:29 51°12.194 2°48.15 250.2 15.4 246.3 11.2
2001-12-14 08:29:34 51°12.185 2°48.12 250 15.3 246.3 11.3
2001-12-14 08:29:38 51°12.179 2°48.095 249.7 15.3 246.5 11.3
2001-12-14 08:29:43 51°12.17 2°48.064 250.3 15.2 246.6 11.3
2001-12-14 08:29:47 51°12.164 2°48.04 249.7 15.1 246.8 11.4
2001-12-14 08:29:53 51°12.154 2°48.003 249.8 15 246.4 11.3
2001-12-14 08:29:59 51°12.144 2°47.967 251 15 247 11.4
2001-12-14 08:30:03 51°12.137 2°47.943 249.5 14.9 246.8 11.4
2001-12-14 08:30:09 51°12.128 2°47.906 250 14.9 246.8 11.4
2001-12-14 08:30:13 51°12.121 2°47.882 250.5 15 247 11.4
2001-12-14 08:30:18 51°12.113 2°47.852 250 14.9 246.6 11.4
2001-12-14 08:30:23 51°12.105 2°47.821 250.3 14.9 247.5 11.4
2001-12-14 08:30:29 51°12.095 2°47.785 250.2 14.9 247 11.4
2001-12-14 08:30:33 51°12.088 2°47.761 249.5 14.9 246.4 11.4
2001-12-14 08:30:38 51°12.081 2°47.731 250.8 14.9 247.2 11.5
2001-12-14 08:30:43 51°12.073 2°47.7 251.7 14.9 247.6 11.5
2001-12-14 08:30:48 51°12.066 2°47.67 252.7 14.8 249.3 11.6
2001-12-14 08:30:53 51°12.058 2°47.639 252.7 14.8 248.8 11.5
2001-12-14 08:30:58 51°12.052 2°47.609 252.8 14.8 250.1 11.5
2001-12-14 08:31:03 51°12.045 2°47.578 253.8 14.8 249.7 11.6
2001-12-14 08:31:08 51°12.037 2°47.547 253.5 14.9 250 11.6
2001-12-14 08:31:14 51°12.03 2°47.51 254 14.9 250.4 11.6
2001-12-14 08:31:18 51°12.024 2°47.485 254.7 14.9 250.6 11.7
2001-12-14 08:31:24 51°12.015 2°47.448 254 14.9 250.3 11.8
2001-12-14 08:31:28 51°12.011 2°47.423 254.2 14.9 251.2 11.8
2001-12-14 08:31:33 51°12.003 2°47.393 253 14.9 249.6 11.8
2001-12-14 08:31:38 51°11.997 2°47.361 254.2 14.9 250.3 11.8
2001-12-14 08:31:43 51°11.989 2°47.33 253.2 15 250.1 11.8
2001-12-14 08:31:48 51°11.982 2°47.299 253.3 14.9 250 11.8
2001-12-14 08:31:54 51°11.973 2°47.262 252.8 14.9 249.9 11.9
2001-12-14 08:31:58 51°11.968 2°47.238 252.3 14.9 249.7 11.9
2001-12-14 08:32:03 51°11.96 2°47.207 251.8 14.9 248.6 11.9
2001-12-14 08:32:09 51°11.952 2°47.169 253.3 15 250.5 11.8
2001-12-14 08:32:13 51°11.946 2°47.145 253.2 15 249.8 11.9
2001-12-14 08:32:18 51°11.94 2°47.113 255.3 15 251.6 11.9
2001-12-14 08:32:24 51°11.932 2°47.075 255 15 251.7 11.9
2001-12-14 08:32:29 51°11.926 2°47.044 255.5 15 251.9 11.9
2001-12-14 08:32:33 51°11.921 2°47.018 255.8 15 252.5 12.1
2001-12-14 08:32:38 51°11.915 2°46.987 256 15 252.7 12.1
2001-12-14 08:32:44 51°11.908 2°46.949 257 15 253.7 12.1
2001-12-14 08:32:48 51°11.902 2°46.923 256.3 15 253.1 12.2
2001-12-14 08:32:54 51°11.896 2°46.885 257.2 15 254.1 12.1
2001-12-14 08:32:58 51°11.891 2°46.86 255.8 15 253.1 12.2
2001-12-14 08:33:03 51°11.885 2°46.828 256.5 15 253.5 12.3
2001-12-14 08:33:08 51°11.878 2°46.797 256.3 15 253 12.3
2001-12-14 08:33:13 51°11.873 2°46.764 256.2 15.1 253.5 12.3
2001-12-14 08:33:18 51°11.867 2°46.733 256.5 15.1 253 12.3
2001-12-14 08:33:23 51°11.861 2°46.701 256.7 15.1 253.9 12.3
2001-12-14 08:33:28 51°11.854 2°46.67 255.7 15.1 252.1 12.3
2001-12-14 08:33:34 51°11.848 2°46.631 256.3 15.1 253.9 12.3
2001-12-14 08:33:38 51°11.841 2°46.606 255.5 15.1 251.9 12.4
2001-12-14 08:33:43 51°11.836 2°46.574 255.8 15.1 252.6 12.5
2001-12-14 08:33:49 51°11.828 2°46.536 256.2 15 252.9 12.5
2001-12-14 08:33:53 51°11.823 2°46.511 256.2 15.1 252 12.5
2001-12-14 08:33:58 51°11.817 2°46.479 255 15.1 252.3 12.5
2001-12-14 08:34:03 51°11.81 2°46.447 255.5 15.2 251.9 12.5
2001-12-14 08:34:08 51°11.804 2°46.415 255.8 15.1 252.6 12.5
2001-12-14 08:34:13 51°11.797 2°46.383 256.3 15.1 252.1 12.5
2001-12-14 08:34:18 51°11.791 2°46.351 256.3 15.1 253.4 12.5
2001-12-14 08:34:24 51°11.784 2°46.313 255.8 15.1 252.1 12.5
2001-12-14 08:34:28 51°11.778 2°46.287 256.3 15.2 252.5 12.5
2001-12-14 08:34:33 51°11.772 2°46.256 254.5 15.1 252.1 12.6
2001-12-14 08:34:38 51°11.765 2°46.224 255.3 15.1 250.9 12.5
2001-12-14 08:34:43 51°11.758 2°46.193 254.7 15.1 251.6 12.5
2001-12-14 08:34:48 51°11.752 2°46.161 255.3 15.1 251.3 12.5
2001-12-14 08:34:52 51°11.747 2°46.135 256.2 15.1 252.4 12.4
2001-12-14 08:34:58 51°11.739 2°46.097 255.8 15.1 252.5 12.5
2001-12-14 08:35:03 51°11.733 2°46.065 256.2 15.1 252.9 12.6
2001-12-14 08:35:08 51°11.727 2°46.034 256 15.1 252.6 12.5
2001-12-14 08:35:14 51°11.719 2°45.995 256.2 15.1 252.4 12.5
2001-12-14 08:35:18 51°11.714 2°45.97 255.7 15.1 252.3 12.6
2001-12-14 08:35:23 51°11.708 2°45.938 256.8 15.2 253 12.6
2001-12-14 08:35:28 51°11.702 2°45.906 256.3 15.2 253.3 12.6
2001-12-14 08:35:33 51°11.696 2°45.874 256 15.1 252.9 12.6
2001-12-14 08:35:39 51°11.688 2°45.836 255.8 15.1 253 12.5
2001-12-14 08:35:43 51°11.683 2°45.81 257.2 15.2 252.6 12.5
2001-12-14 08:35:48 51°11.677 2°45.779 255.8 15.1 253.2 12.5
2001-12-14 08:35:54 51°11.669 2°45.741 255.5 15.1 251.7 12.5
2001-12-14 08:35:58 51°11.665 2°45.715 256.5 15 253.8 12.5
2001-12-14 08:36:03 51°11.658 2°45.684 256 15 251.7 12.5
2001-12-14 08:36:08 51°11.653 2°45.651 256.2 15 253.6 12.5
2001-12-14 08:36:12 51°11.646 2°45.627 256.2 15 251.8 12.5
2001-12-14 08:36:18 51°11.64 2°45.589 256.7 14.9 253.2 12.5
2001-12-14 08:36:23 51°11.635 2°45.552 256.8 15 252.5 12.5
2001-12-14 08:36:29 51°11.627 2°45.515 257.5 15 254.2 12.6
2001-12-14 08:36:33 51°11.622 2°45.489 257.8 15 253.8 12.7
2001-12-14 08:36:39 51°11.615 2°45.455 258.2 15 254.5 12.7
2001-12-14 08:36:43 51°11.611 2°45.43 258.7 15 254.8 12.6
2001-12-14 08:36:48 51°11.606 2°45.398 258.8 15 255.1 12.7
2001-12-14 08:36:53 51°11.601 2°45.366 259.2 15 255.4 12.6
2001-12-14 08:36:59 51°11.594 2°45.328 258.5 14.9 255.5 12.7
2001-12-14 08:37:03 51°11.59 2°45.303 258.7 14.8 254.7 12.7
2001-12-14 08:37:08 51°11.585 2°45.271 257.8 14.8 255.1 12.7
2001-12-14 08:37:13 51°11.578 2°45.24 257.8 14.8 253.6 12.7
2001-12-14 08:37:18 51°11.573 2°45.209 257.3 14.7 254.9 12.6
2001-12-14 08:37:23 51°11.567 2°45.177 257.8 14.8 252.9 12.6
2001-12-14 08:37:28 51°11.561 2°45.146 256.5 14.8 253.4 12.6
2001-12-14 08:37:33 51°11.555 2°45.115 257 14.8 252.9 12.6
2001-12-14 08:37:38 51°11.55 2°45.084 257.8 14.8 253.6 12.6
2001-12-14 08:37:43 51°11.543 2°45.052 256.3 14.8 252.9 12.5
2001-12-14 08:37:48 51°11.538 2°45.021 258 14.8 253.8 12.6
2001-12-14 08:37:53 51°11.532 2°44.99 257.5 14.8 253.6 12.6
2001-12-14 08:37:58 51°11.527 2°44.958 257.7 14.8 254.6 12.6
2001-12-14 08:38:03 51°11.521 2°44.927 258.3 14.7 254.5 12.6
2001-12-14 08:38:08 51°11.516 2°44.895 257.3 14.7 254.4 12.5
2001-12-14 08:38:13 51°11.51 2°44.863 258.7 14.8 254.3 12.6
2001-12-14 08:38:18 51°11.504 2°44.832 257.3 14.9 254.9 12.6
2001-12-14 08:38:22 51°11.5 2°44.807 257.5 14.8 253.5 12.6
2001-12-14 08:38:29 51°11.492 2°44.763 257.8 14.8 254.5 12.6
2001-12-14 08:38:32 51°11.488 2°44.744 258.5 14.8 254.1 12.6
2001-12-14 08:38:38 51°11.482 2°44.706 258 14.8 254.6 12.5
2001-12-14 08:38:43 51°11.476 2°44.675 257.8 14.8 254.1 12.5
2001-12-14 08:38:48 51°11.471 2°44.644 258.5 14.8 254.6 12.6
2001-12-14 08:38:53 51°11.466 2°44.612 258.2 14.7 254.8 12.6
2001-12-14 08:38:58 51°11.46 2°44.581 258.8 14.7 254.9 12.6
2001-12-14 08:39:03 51°11.455 2°44.55 258.7 14.6 255.2 12.6
2001-12-14 08:39:08 51°11.449 2°44.518 257.2 14.6 254 12.5
2001-12-14 08:39:14 51°11.443 2°44.481 258 14.7 254.5 12.6
2001-12-14 08:39:18 51°11.438 2°44.456 258 14.8 254.1 12.6
2001-12-14 08:39:24 51°11.432 2°44.418 258.2 14.7 254.4 12.5
2001-12-14 08:39:28 51°11.427 2°44.393 258.3 14.7 254.3 12.5
2001-12-14 08:39:33 51°11.421 2°44.361 258.2 14.8 254.3 12.5
2001-12-14 08:39:38 51°11.417 2°44.33 258.2 14.9 254.9 12.5
2001-12-14 08:39:43 51°11.411 2°44.299 258 14.8 254.1 12.6
2001-12-14 08:39:49 51°11.404 2°44.261 258.5 14.8 254.9 12.5
2001-12-14 08:39:53 51°11.4 2°44.236 258.7 14.8 254.8 12.5
2001-12-14 08:39:58 51°11.394 2°44.205 258.2 14.8 254.8 12.5
2001-12-14 08:40:03 51°11.389 2°44.173 257.7 14.7 254.7 12.5
2001-12-14 08:40:08 51°11.382 2°44.143 258.5 14.7 253 12.4
2001-12-14 08:40:14 51°11.377 2°44.105 258 14.6 256 12.4
2001-12-14 08:40:19 51°11.373 2°44.073 258.7 14.6 253.6 12.5
2001-12-14 08:40:23 51°11.367 2°44.049 258.2 14.6 254.7 12.4
2001-12-14 08:40:29 51°11.362 2°44.011 258.5 14.6 255.3 12.4
2001-12-14 08:40:33 51°11.356 2°43.986 257.7 14.7 254.2 12.5
2001-12-14 08:40:38 51°11.352 2°43.954 258 14.7 254.7 12.5
2001-12-14 08:40:43 51°11.345 2°43.924 257.2 14.8 254.1 12.5
2001-12-14 08:40:48 51°11.341 2°43.892 257.2 14.8 254.8 12.5
2001-12-14 08:40:53 51°11.335 2°43.861 257.5 14.7 254.3 12.5
2001-12-14 08:40:59 51°11.328 2°43.824 257.8 14.6 254.3 12.5
2001-12-14 08:41:04 51°11.322 2°43.793 256.7 14.6 253.5 12.5
2001-12-14 08:41:08 51°11.318 2°43.767 257.5 14.6 254.5 12.6
2001-12-14 08:41:13 51°11.312 2°43.737 257.5 14.6 253.7 12.5
2001-12-14 08:41:19 51°11.306 2°43.7 257.5 14.6 254.5 12.5
2001-12-14 08:41:23 51°11.301 2°43.675 257.5 14.5 253.8 12.5
2001-12-14 08:41:29 51°11.295 2°43.638 257.7 14.6 253.9 12.5
2001-12-14 08:41:33 51°11.291 2°43.613 257.5 14.6 254.6 12.5
2001-12-14 08:41:38 51°11.284 2°43.582 258 14.6 253.8 12.6
2001-12-14 08:41:43 51°11.28 2°43.551 258.3 14.7 255.1 12.5
2001-12-14 08:41:48 51°11.274 2°43.52 258.3 14.6 254.8 12.6
2001-12-14 08:41:52 51°11.27 2°43.495 258.3 14.6 255.2 12.5
2001-12-14 08:41:58 51°11.263 2°43.458 257.8 14.6 254.3 12.5
2001-12-14 08:42:03 51°11.257 2°43.426 257 14.7 254.2 12.6
2001-12-14 08:42:08 51°11.253 2°43.394 258.7 14.8 254.8 12.6
2001-12-14 08:42:13 51°11.247 2°43.363 258.2 14.8 254.7 12.7
2001-12-14 08:42:19 51°11.241 2°43.326 258.3 14.6 254.4 12.7
2001-12-14 08:42:23 51°11.236 2°43.302 257.3 14.4 254 12.7
2001-12-14 08:42:28 51°11.232 2°43.27 258.3 14.5 255.3 12.6
2001-12-14 08:42:33 51°11.225 2°43.239 258.2 14.7 254.2 12.6
2001-12-14 08:42:38 51°11.221 2°43.208 258.5 14.7 254.9 12.6
2001-12-14 08:42:43 51°11.215 2°43.177 258.2 14.6 254.7 12.7
2001-12-14 08:42:47 51°11.211 2°43.153 257.3 14.4 254.5 12.6
2001-12-14 08:42:54 51°11.204 2°43.11 258.3 14.4 253.8 12.5
2001-12-14 08:42:58 51°11.199 2°43.085 257.5 14.5 254.8 12.5
2001-12-14 08:43:03 51°11.194 2°43.054 257.8 14.6 255.2 12.6
2001-12-14 08:43:08 51°11.188 2°43.023 259.3 14.6 254.7 12.6
2001-12-14 08:43:13 51°11.183 2°42.992 258.7 14.5 255.8 12.6
2001-12-14 08:43:18 51°11.179 2°42.961 259.2 14.5 255.9 12.6
2001-12-14 08:43:24 51°11.172 2°42.924 259.7 14.5 255.4 12.6
2001-12-14 08:43:28 51°11.17 2°42.899 260.7 14.5 257.3 12.5
2001-12-14 08:43:33 51°11.164 2°42.868 260.7 14.5 255.9 12.5
2001-12-14 08:43:38 51°11.16 2°42.837 261.8 14.5 257.5 12.5
2001-12-14 08:43:42 51°11.156 2°42.812 261.8 14.5 257.2 12.5
2001-12-14 08:43:48 51°11.152 2°42.774 261 14.4 258.5 12.5
2001-12-14 08:43:53 51°11.147 2°42.743 260.5 14.4 256.5 12.5
2001-12-14 08:43:58 51°11.143 2°42.712 261.7 14.4 258.3 12.5
2001-12-14 08:44:03 51°11.138 2°42.681 261.2 14.4 257.2 12.5
2001-12-14 08:44:08 51°11.135 2°42.65 261.3 14.4 257.8 12.5
2001-12-14 08:44:13 51°11.129 2°42.619 261.2 14.5 256.5 12.5
2001-12-14 08:44:18 51°11.125 2°42.588 260.7 14.5 256.7 12.5
2001-12-14 08:44:23 51°11.121 2°42.556 260.3 14.5 256.7 12.5
2001-12-14 08:44:28 51°11.117 2°42.526 261.8 14.4 257.5 12.5
2001-12-14 08:44:34 51°11.112 2°42.492 261.5 13.7 257.6 12.4
2001-12-14 08:44:38 51°11.109 2°42.47 261 13.1 257.2 12.5
2001-12-14 08:44:43 51°11.105 2°42.445 261.5 12.3 256.9 12.5
2001-12-14 08:44:49 51°11.101 2°42.416 260.8 11.8 256.8 12.7
2001-12-14 08:44:53 51°11.098 2°42.397 261.5 11.1 256.9 12.7
2001-12-14 08:44:58 51°11.094 2°42.375 260.5 10.7 256.1 12.6
2001-12-14 08:45:04 51°11.091 2°42.35 261.7 10.1 256.3 12.5
2001-12-14 08:45:08 51°11.088 2°42.334 261.5 9.5 256 12.5
2001-12-14 08:45:13 51°11.086 2°42.315 262.2 9 256.8 12.5
2001-12-14 08:45:18 51°11.084 2°42.297 263.5 8.5 257.9 12.6
2001-12-14 08:45:23 51°11.081 2°42.28 264 8.1 257.9 12.6
2001-12-14 08:45:28 51°11.079 2°42.264 264.5 7.7 258.2 12.7
2001-12-14 08:45:33 51°11.077 2°42.249 265.7 7.4 259.1 12.7
2001-12-14 08:45:39 51°11.075 2°42.23 267.2 7.1 260 12.6
2001-12-14 08:45:43 51°11.074 2°42.219 268.3 6.8 260.7 12.5
2001-12-14 08:45:49 51°11.072 2°42.202 269.7 6.5 261 12.4
2001-12-14 08:45:53 51°11.072 2°42.191 270.7 6.2 262.2 12.4
2001-12-14 08:45:58 51°11.071 2°42.178 272.3 6 262.7 12.4
2001-12-14 08:46:03 51°11.07 2°42.166 274.5 5.8 264.6 12.5
2001-12-14 08:46:09 51°11.07 2°42.152 276.5 5.5 265.6 12.6
2001-12-14 08:46:14 51°11.07 2°42.14 278.2 5.3 267.3 12.7
2001-12-14 08:46:19 51°11.069 2°42.129 279.3 5.2 267.8 12.8
2001-12-14 08:46:23 51°11.069 2°42.121 280.7 4.9 269.2 12.6
2001-12-14 08:46:28 51°11.07 2°42.111 282.2 4.8 270.4 12.5
2001-12-14 08:46:33 51°11.07 2°42.1 283.8 4.6 271.2 12.5
2001-12-14 08:46:38 51°11.07 2°42.091 286 4.5 271.6 12.5
2001-12-14 08:46:44 51°11.071 2°42.08 287.7 4.4 273.1 12.5
2001-12-14 08:46:49 51°11.071 2°42.07 289.3 4.2 274.6 12.6